createdAt,value
2019-02-03T00:01:14.832Z,99970.00
2019-02-03T00:03:51.848Z,99970.00
2019-02-03T00:06:25.571Z,99975.00
2019-02-03T00:08:57.833Z,99975.00
2019-02-03T00:12:33.273Z,99973.00
2019-02-03T00:15:25.116Z,99981.00
2019-02-03T00:18:34.770Z,99989.00
2019-02-03T00:22:20.042Z,99989.00
2019-02-03T00:25:06.293Z,99983.00
2019-02-03T00:28:09.787Z,99988.00
2019-02-03T00:30:56.552Z,99986.00
2019-02-03T00:37:18.470Z,99978.00
2019-02-03T00:39:54.350Z,99981.00
2019-02-03T00:49:23.667Z,99992.00
2019-02-03T00:52:32.412Z,100002.00
2019-02-03T00:55:47.098Z,99999.00
2019-02-03T00:58:44.389Z,99992.00
2019-02-03T01:01:24.564Z,99994.00
2019-02-03T01:03:56.473Z,99983.00
2019-02-03T01:06:28.406Z,100009.00
2019-02-03T01:09:00.030Z,100002.00
2019-02-03T01:11:31.946Z,100018.00
2019-02-03T01:14:03.544Z,100029.00
2019-02-03T01:16:35.050Z,100026.00
2019-02-03T01:19:06.723Z,100025.00
2019-02-03T01:21:38.217Z,100026.00
2019-02-03T01:24:09.736Z,100027.00
2019-02-03T01:26:41.240Z,100025.00
2019-02-03T01:29:12.772Z,100026.00
2019-02-03T01:31:44.265Z,100022.00
2019-02-03T01:34:15.800Z,100038.00
2019-02-03T01:36:47.598Z,100042.00
2019-02-03T01:39:19.100Z,100038.00
2019-02-03T01:41:50.658Z,100035.00
2019-02-03T01:44:23.235Z,100046.00
2019-02-03T01:46:54.836Z,100049.00
2019-02-03T01:49:26.440Z,100050.00
2019-02-03T01:51:57.963Z,100057.00
2019-02-03T01:54:29.711Z,100061.00
2019-02-03T01:57:01.196Z,100064.00
2019-02-03T01:59:33.438Z,100073.00
2019-02-03T02:02:05.111Z,100057.00
2019-02-03T02:04:36.787Z,100061.00
2019-02-03T02:07:08.254Z,100046.00
2019-02-03T02:09:39.728Z,100043.00
2019-02-03T02:12:11.586Z,100051.00
2019-02-03T02:14:43.142Z,100054.00
2019-02-03T02:17:14.711Z,100056.00
2019-02-03T02:19:46.202Z,100064.00
2019-02-03T02:22:17.653Z,100073.00
2019-02-03T02:24:49.182Z,100074.00
2019-02-03T02:27:20.666Z,100077.00
2019-02-03T02:29:54.715Z,100061.00
2019-02-03T02:32:26.196Z,100077.00
2019-02-03T02:34:59.738Z,100067.00
2019-02-03T02:37:31.714Z,100068.00
2019-02-03T02:40:12.094Z,100070.00
2019-02-03T02:42:36.518Z,100084.00
2019-02-03T02:45:08.902Z,100096.00
2019-02-03T02:47:40.579Z,100103.00
2019-02-03T02:50:36.708Z,100106.00
2019-02-03T02:53:08.274Z,100106.00
2019-02-03T02:55:39.824Z,100112.00
2019-02-03T02:58:30.602Z,100123.00
2019-02-03T03:01:02.056Z,100118.00
2019-02-03T03:03:33.999Z,100124.00
2019-02-03T03:06:07.285Z,100122.00
2019-02-03T03:08:38.794Z,100125.00
2019-02-03T03:11:10.421Z,100117.00
2019-02-03T03:13:43.032Z,100124.00
2019-02-03T03:16:14.558Z,100130.00
2019-02-03T03:18:46.008Z,100135.00
2019-02-03T03:21:17.470Z,100126.00
2019-02-03T03:23:48.902Z,100129.00
2019-02-03T03:26:20.667Z,100130.00
2019-02-03T03:28:52.221Z,100140.00
2019-02-03T03:31:23.653Z,100146.00
2019-02-03T03:33:55.097Z,100134.00
2019-02-03T03:36:26.567Z,100150.00
2019-02-03T03:38:58.125Z,100151.00
2019-02-03T03:41:29.580Z,100154.00
2019-02-03T03:44:01.024Z,100154.00
2019-02-03T03:46:32.503Z,100163.00
2019-02-03T03:49:04.065Z,100167.00
2019-02-03T03:51:35.623Z,100148.00
2019-02-03T03:54:07.363Z,100173.00
2019-02-03T03:56:38.849Z,100173.00
2019-02-03T03:59:10.271Z,100162.00
2019-02-03T04:01:42.158Z,100153.00
2019-02-03T04:04:16.484Z,100141.00
2019-02-03T04:06:48.149Z,100144.00
2019-02-03T04:09:22.801Z,100133.00
2019-02-03T04:11:54.323Z,100135.00
2019-02-03T04:14:25.813Z,100144.00
2019-02-03T04:16:57.275Z,100143.00
2019-02-03T04:19:28.752Z,100160.00
2019-02-03T04:22:00.177Z,100169.00
2019-02-03T04:24:32.193Z,100183.00
2019-02-03T04:27:03.699Z,100190.00
2019-02-03T04:29:35.118Z,100048.00
2019-02-03T04:32:06.722Z,100198.00
2019-02-03T04:34:38.176Z,100194.00
2019-02-03T04:37:09.996Z,100191.00
2019-02-03T04:39:41.437Z,100189.00
2019-02-03T04:42:12.971Z,100203.00
2019-02-03T04:44:44.397Z,100212.00
2019-02-03T04:47:15.929Z,100215.00
2019-02-03T04:49:47.496Z,100216.00
2019-02-03T04:52:19.042Z,100222.00
2019-02-03T04:54:50.529Z,100221.00
2019-02-03T04:57:21.991Z,100233.00
2019-02-03T04:59:53.562Z,100242.00
2019-02-03T05:02:25.081Z,100239.00
2019-02-03T05:04:56.706Z,100254.00
2019-02-03T05:07:28.404Z,100262.00
2019-02-03T05:09:59.881Z,100279.00
2019-02-03T05:12:31.636Z,100294.00
2019-02-03T05:15:03.140Z,100282.00
2019-02-03T05:17:34.673Z,100279.00
2019-02-03T05:20:08.493Z,100278.00
2019-02-03T05:22:39.951Z,100275.00
2019-02-03T05:25:12.770Z,100285.00
2019-02-03T05:27:56.423Z,100285.00
2019-02-03T05:30:32.711Z,100289.00
2019-02-03T05:33:05.426Z,100304.00
2019-02-03T05:35:36.904Z,100305.00
2019-02-03T05:38:08.389Z,100309.00
2019-02-03T05:40:39.820Z,100315.00
2019-02-03T05:43:11.272Z,100321.00
2019-02-03T05:45:42.738Z,100335.00
2019-02-03T05:48:14.227Z,100337.00
2019-02-03T05:50:45.689Z,100345.00
2019-02-03T05:53:17.187Z,100335.00
2019-02-03T05:55:48.622Z,100336.00
2019-02-03T05:58:20.355Z,100338.00
2019-02-03T06:00:51.835Z,100343.00
2019-02-03T06:03:23.292Z,100343.00
2019-02-03T06:05:54.738Z,100356.00
2019-02-03T06:08:26.474Z,100364.00
2019-02-03T06:10:57.919Z,100365.00
2019-02-03T06:13:29.359Z,100378.00
2019-02-03T06:16:00.825Z,100380.00
2019-02-03T06:18:32.266Z,100375.00
2019-02-03T06:21:03.940Z,100376.00
2019-02-03T06:23:35.541Z,100388.00
2019-02-03T06:26:07.228Z,100392.00
2019-02-03T06:28:38.774Z,100405.00
2019-02-03T06:31:17.336Z,100407.00
2019-02-03T06:33:50.764Z,100418.00
2019-02-03T06:36:23.219Z,100409.00
2019-02-03T06:38:59.572Z,100410.00
2019-02-03T06:41:31.508Z,100418.00
2019-02-03T06:44:02.958Z,100432.00
2019-02-03T06:46:56.158Z,100430.00
2019-02-03T06:49:39.293Z,100437.00
2019-02-03T06:52:10.952Z,100433.00
2019-02-03T06:54:42.533Z,100438.00
2019-02-03T06:57:14.022Z,100440.00
2019-02-03T06:59:51.153Z,100436.00
2019-02-03T07:02:19.297Z,100440.00
2019-02-03T07:04:50.790Z,100439.00
2019-02-03T07:07:22.264Z,100452.00
2019-02-03T07:10:00.466Z,100447.00
2019-02-03T07:12:27.015Z,100453.00
2019-02-03T07:14:58.512Z,100455.00
2019-02-03T07:17:29.940Z,100448.00
2019-02-03T07:20:01.424Z,100451.00
2019-02-03T07:22:32.855Z,100456.00
2019-02-03T07:25:04.662Z,100464.00
2019-02-03T07:27:36.214Z,100471.00
2019-02-03T07:30:10.646Z,100463.00
2019-02-03T07:32:42.188Z,100471.00
2019-02-03T07:35:14.115Z,100467.00
2019-02-03T07:37:45.722Z,100488.00
2019-02-03T07:40:17.308Z,100492.00
2019-02-03T07:42:48.882Z,100487.00
2019-02-03T07:45:21.460Z,100503.00
2019-02-03T07:47:52.981Z,100494.00
2019-02-03T07:50:24.685Z,100503.00
2019-02-03T07:52:56.267Z,100501.00
2019-02-03T07:55:27.840Z,100511.00
2019-02-03T07:57:59.435Z,100519.00
2019-02-03T08:00:30.990Z,100528.00
2019-02-03T08:03:02.390Z,100532.00
2019-02-03T08:05:34.011Z,100528.00
2019-02-03T08:08:05.677Z,100532.00
2019-02-03T08:10:37.304Z,100546.00
2019-02-03T08:13:09.017Z,100555.00
2019-02-03T08:15:40.528Z,100559.00
2019-02-03T08:18:12.200Z,100566.00
2019-02-03T08:20:43.825Z,100570.00
2019-02-03T08:23:15.792Z,100569.00
2019-02-03T08:25:47.399Z,100572.00
2019-02-03T08:28:18.993Z,100583.00
2019-02-03T08:30:50.557Z,100593.00
2019-02-03T08:33:22.196Z,100594.00
2019-02-03T08:35:54.620Z,100606.00
2019-02-03T08:38:26.091Z,100605.00
2019-02-03T08:40:58.096Z,100612.00
2019-02-03T08:43:29.673Z,100625.00
2019-02-03T08:46:01.243Z,100617.00
2019-02-03T08:48:32.841Z,100619.00
2019-02-03T08:51:04.783Z,100634.00
2019-02-03T08:53:36.359Z,100635.00
2019-02-03T08:56:08.170Z,100633.00
2019-02-03T08:58:39.722Z,100629.00
2019-02-03T09:01:11.265Z,100637.00
2019-02-03T09:03:42.783Z,100635.00
2019-02-03T09:06:14.272Z,100642.00
2019-02-03T09:08:45.876Z,100639.00
2019-02-03T09:11:20.088Z,100643.00
2019-02-03T09:13:51.551Z,100653.00
2019-02-03T09:16:26.347Z,100647.00
2019-02-03T09:18:57.820Z,100652.00
2019-02-03T09:21:29.581Z,100660.00
2019-02-03T09:24:01.309Z,100654.00
2019-02-03T09:26:32.859Z,100656.00
2019-02-03T09:29:04.587Z,100658.00
2019-02-03T09:31:37.343Z,100664.00
2019-02-03T09:34:09.163Z,100655.00
2019-02-03T09:36:40.954Z,100666.00
2019-02-03T09:39:14.351Z,100667.00
2019-02-03T09:41:45.988Z,100674.00
2019-02-03T09:44:17.493Z,100679.00
2019-02-03T09:46:49.104Z,100669.00
2019-02-03T09:49:20.629Z,100674.00
2019-02-03T09:51:53.924Z,100679.00
2019-02-03T09:54:27.323Z,100684.00
2019-02-03T09:57:02.395Z,100677.00
2019-02-03T09:59:34.527Z,100684.00
2019-02-03T10:02:06.481Z,100698.00
2019-02-03T10:04:41.680Z,100699.00
2019-02-03T10:07:14.081Z,100702.00
2019-02-03T10:09:46.738Z,100710.00
2019-02-03T10:12:19.365Z,100715.00
2019-02-03T10:14:55.204Z,100713.00
2019-02-03T10:17:28.970Z,100715.00
2019-02-03T10:20:16.065Z,100714.00
2019-02-03T10:22:47.851Z,100719.00
2019-02-03T10:25:21.769Z,100723.00
2019-02-03T10:27:53.931Z,100723.00
2019-02-03T10:30:26.862Z,100722.00
2019-02-03T10:32:59.031Z,100735.00
2019-02-03T10:35:30.886Z,100744.00
2019-02-03T10:38:02.582Z,100742.00
2019-02-03T10:40:37.981Z,100747.00
2019-02-03T10:43:10.346Z,100752.00
2019-02-03T10:45:42.810Z,100753.00
2019-02-03T10:48:14.287Z,100743.00
2019-02-03T10:50:45.859Z,100753.00
2019-02-03T10:53:17.393Z,100758.00
2019-02-03T10:55:48.847Z,100751.00
2019-02-03T10:58:20.414Z,100753.00
2019-02-03T11:00:55.071Z,100755.00
2019-02-03T11:03:25.357Z,100765.00
2019-02-03T11:05:59.496Z,100757.00
2019-02-03T11:08:31.297Z,100761.00
2019-02-03T11:11:02.821Z,100757.00
2019-02-03T11:13:34.783Z,100765.00
2019-02-03T11:16:06.554Z,100766.00
2019-02-03T11:18:38.121Z,100767.00
2019-02-03T11:21:11.848Z,100777.00
2019-02-03T11:23:43.504Z,100781.00
2019-02-03T11:26:15.105Z,100775.00
2019-02-03T11:28:46.853Z,100787.00
2019-02-03T11:31:18.392Z,100796.00
2019-02-03T11:33:50.083Z,100794.00
2019-02-03T11:36:21.702Z,100797.00
2019-02-03T11:38:53.258Z,100795.00
2019-02-03T11:41:25.403Z,100797.00
2019-02-03T11:43:57.046Z,100792.00
2019-02-03T11:46:28.742Z,100795.00
2019-02-03T11:49:00.630Z,100804.00
2019-02-03T11:51:32.419Z,100806.00
2019-02-03T11:54:07.272Z,100808.00
2019-02-03T11:56:41.753Z,100802.00
2019-02-03T11:59:13.381Z,100812.00
2019-02-03T12:01:44.981Z,100818.00
2019-02-03T12:04:16.938Z,100823.00
2019-02-03T12:06:48.856Z,100815.00
2019-02-03T12:09:21.351Z,100824.00
2019-02-03T12:12:00.710Z,100813.00
2019-02-03T12:14:26.191Z,100824.00
2019-02-03T12:16:57.748Z,100825.00
2019-02-03T12:19:29.345Z,100813.00
2019-02-03T12:22:00.858Z,100819.00
2019-02-03T12:24:35.746Z,100823.00
2019-02-03T12:27:07.597Z,100815.00
2019-02-03T12:29:39.512Z,100832.00
2019-02-03T12:32:11.694Z,100825.00
2019-02-03T12:34:43.510Z,100848.00
2019-02-03T12:37:15.408Z,100831.00
2019-02-03T12:39:46.982Z,100837.00
2019-02-03T12:42:18.782Z,100845.00
2019-02-03T12:44:51.680Z,100848.00
2019-02-03T12:47:24.451Z,100866.00
2019-02-03T12:49:56.544Z,100847.00
2019-02-03T12:52:28.136Z,100845.00
2019-02-03T12:54:59.734Z,100839.00
2019-02-03T12:57:32.544Z,100868.00
2019-02-03T13:00:10.252Z,100851.00
2019-02-03T13:02:48.549Z,100862.00
2019-02-03T13:05:32.476Z,100862.00
2019-02-03T13:08:04.780Z,100873.00
2019-02-03T13:10:41.432Z,100875.00
2019-02-03T13:13:15.206Z,100878.00
2019-02-03T13:15:51.217Z,100883.00
2019-02-03T13:18:23.515Z,100870.00
2019-02-03T13:20:55.500Z,100882.00
2019-02-03T13:23:28.646Z,100888.00
2019-02-03T13:26:00.578Z,100891.00
2019-02-03T13:28:35.247Z,100910.00
2019-02-03T13:31:07.922Z,100873.00
2019-02-03T13:33:41.958Z,100897.00
2019-02-03T13:36:14.213Z,100892.00
2019-02-03T13:38:49.126Z,100891.00
2019-02-03T13:41:22.588Z,100899.00
2019-02-03T13:43:54.936Z,100888.00
2019-02-03T13:46:28.193Z,100896.00
2019-02-03T13:49:00.293Z,100896.00
2019-02-03T13:51:35.097Z,100907.00
2019-02-03T13:54:09.822Z,100909.00
2019-02-03T13:56:42.084Z,100909.00
2019-02-03T13:59:15.003Z,100927.00
2019-02-03T14:01:51.961Z,100909.00
2019-02-03T14:04:23.999Z,100918.00
2019-02-03T14:06:58.498Z,100920.00
2019-02-03T14:09:30.003Z,100924.00
2019-02-03T14:12:01.496Z,100932.00
2019-02-03T14:14:33.033Z,100940.00
2019-02-03T14:17:04.654Z,100937.00
2019-02-03T14:19:36.125Z,100939.00
2019-02-03T14:22:08.024Z,100943.00
2019-02-03T14:24:39.481Z,100940.00
2019-02-03T14:27:11.010Z,100945.00
2019-02-03T14:29:44.329Z,100957.00
2019-02-03T14:32:15.806Z,100954.00
2019-02-03T14:34:47.401Z,100967.00
2019-02-03T14:37:18.957Z,100963.00
2019-02-03T14:39:50.409Z,100966.00
2019-02-03T14:42:21.948Z,100961.00
2019-02-03T14:44:53.529Z,100960.00
2019-02-03T14:47:25.159Z,100973.00
2019-02-03T14:49:56.794Z,100968.00
2019-02-03T14:52:28.347Z,100964.00
2019-02-03T14:54:59.887Z,100969.00
2019-02-03T14:57:32.670Z,100983.00
2019-02-03T15:00:05.793Z,100972.00
2019-02-03T15:02:37.875Z,100980.00
2019-02-03T15:05:09.917Z,100980.00
2019-02-03T15:07:41.506Z,100983.00
2019-02-03T15:10:13.334Z,100982.00
2019-02-03T15:12:45.066Z,100985.00
2019-02-03T15:15:19.571Z,100991.00
2019-02-03T15:17:51.141Z,100988.00
2019-02-03T15:20:24.062Z,100990.00
2019-02-03T15:23:01.627Z,100989.00
2019-02-03T15:25:33.386Z,100993.00
2019-02-03T15:28:12.138Z,100991.00
2019-02-03T15:30:45.059Z,100987.00
2019-02-03T15:33:17.399Z,100987.00
2019-02-03T15:35:49.271Z,100997.00
2019-02-03T15:38:20.890Z,100996.00
2019-02-03T15:40:52.759Z,100996.00
2019-02-03T15:43:25.886Z,101007.00
2019-02-03T15:46:01.052Z,101005.00
2019-02-03T15:48:32.931Z,101009.00
2019-02-03T15:51:04.623Z,101003.00
2019-02-03T15:53:36.273Z,101006.00
2019-02-03T15:56:08.299Z,101009.00
2019-02-03T15:58:42.106Z,101008.00
2019-02-03T16:01:14.220Z,101007.00
2019-02-03T16:03:47.493Z,101017.00
2019-02-03T16:06:19.045Z,101012.00
2019-02-03T16:08:50.591Z,101014.00
2019-02-03T16:11:22.088Z,101025.00
2019-02-03T16:13:55.667Z,101018.00
2019-02-03T16:16:27.237Z,101030.00
2019-02-03T16:18:58.745Z,101032.00
2019-02-03T16:21:30.329Z,101033.00
2019-02-03T16:24:05.223Z,101035.00
2019-02-03T16:26:36.954Z,101047.00
2019-02-03T16:29:08.911Z,101049.00
2019-02-03T16:31:40.515Z,101046.00
2019-02-03T16:34:12.645Z,101070.00
2019-02-03T16:36:44.391Z,101071.00
2019-02-03T16:39:16.049Z,101070.00
2019-02-03T16:41:48.539Z,101068.00
2019-02-03T16:44:22.898Z,101078.00
2019-02-03T16:46:53.417Z,101085.00
2019-02-03T16:49:25.032Z,101081.00
2019-02-03T16:51:56.926Z,101082.00
2019-02-03T16:54:30.573Z,101078.00
2019-02-03T16:57:02.093Z,101081.00
2019-02-03T16:59:33.660Z,101088.00
2019-02-03T17:02:05.440Z,101089.00
2019-02-03T17:04:36.949Z,101094.00
2019-02-03T17:07:08.765Z,101104.00
2019-02-03T17:09:40.388Z,101104.00
2019-02-03T17:12:14.173Z,101113.00
2019-02-03T17:14:45.107Z,101119.00
2019-02-03T17:17:16.600Z,101116.00
2019-02-03T17:19:48.326Z,101116.00
2019-02-03T17:22:19.787Z,101110.00
2019-02-03T17:24:53.940Z,101116.00
2019-02-03T17:27:25.551Z,101118.00
2019-02-03T17:29:57.347Z,101119.00
2019-02-03T17:32:28.953Z,101121.00
2019-02-03T17:35:00.463Z,101117.00
2019-02-03T17:37:32.259Z,101124.00
2019-02-03T17:40:04.151Z,101128.00
2019-02-03T17:42:35.911Z,101129.00
2019-02-03T17:45:13.018Z,101143.00
2019-02-03T17:47:44.892Z,101140.00
2019-02-03T17:50:20.635Z,101135.00
2019-02-03T17:53:03.986Z,101142.00
2019-02-03T17:55:38.066Z,101146.00
2019-02-03T17:58:09.542Z,101141.00
2019-02-03T18:00:52.084Z,101157.00
2019-02-03T18:03:24.497Z,101150.00
2019-02-03T18:05:56.650Z,101157.00
2019-02-03T18:08:28.226Z,101155.00
2019-02-03T18:10:59.817Z,101165.00
2019-02-03T18:13:31.510Z,101165.00
2019-02-03T18:16:03.210Z,101151.00
2019-02-03T18:18:35.222Z,101173.00
2019-02-03T18:21:06.926Z,101177.00
2019-02-03T18:23:40.103Z,101179.00
2019-02-03T18:26:11.656Z,101180.00
2019-02-03T18:28:43.203Z,101186.00
2019-02-03T18:31:33.900Z,101190.00
2019-02-03T18:34:05.968Z,101189.00
2019-02-03T18:36:37.575Z,101199.00
2019-02-03T18:39:10.712Z,101196.00
2019-02-03T18:41:44.039Z,101202.00
2019-02-03T18:44:15.769Z,101213.00
2019-02-03T18:46:48.370Z,101201.00
2019-02-03T18:49:19.999Z,101210.00
2019-02-03T18:51:53.317Z,101212.00
2019-02-03T18:54:24.990Z,101210.00
2019-02-03T18:56:56.568Z,101218.00
2019-02-03T18:59:28.266Z,101221.00
2019-02-03T19:02:00.194Z,101229.00
2019-02-03T19:04:31.900Z,101231.00
2019-02-03T19:07:04.034Z,101230.00
2019-02-03T19:09:35.639Z,101233.00
2019-02-03T19:12:07.803Z,101234.00
2019-02-03T19:14:47.100Z,101229.00
2019-02-03T19:17:13.710Z,101242.00
2019-02-03T19:19:45.680Z,101230.00
2019-02-03T19:22:17.510Z,101246.00
2019-02-03T19:24:49.322Z,101239.00
2019-02-03T19:27:20.947Z,101246.00
2019-02-03T19:29:53.975Z,101242.00
2019-02-03T19:32:25.573Z,101247.00
2019-02-03T19:34:57.118Z,101244.00
2019-02-03T19:37:29.153Z,101251.00
2019-02-03T19:40:00.765Z,101248.00
2019-02-03T19:42:32.790Z,101264.00
2019-02-03T19:45:04.754Z,101261.00
2019-02-03T19:47:36.538Z,101258.00
2019-02-03T19:50:11.886Z,101261.00
2019-02-03T19:52:43.601Z,101265.00
2019-02-03T19:55:16.516Z,101258.00
2019-02-03T19:57:50.961Z,101262.00
2019-02-03T20:00:33.391Z,101270.00
2019-02-03T20:03:06.285Z,101275.00
2019-02-03T20:05:38.382Z,101273.00
2019-02-03T20:08:12.535Z,101279.00
2019-02-03T20:10:45.409Z,101278.00
2019-02-03T20:13:17.351Z,101279.00
2019-02-03T20:15:52.258Z,101296.00
2019-02-03T20:18:24.498Z,101289.00
2019-02-03T20:20:57.198Z,101299.00
2019-02-03T20:23:29.420Z,101296.00
2019-02-03T20:26:01.202Z,101303.00
2019-02-03T20:28:39.285Z,101304.00
2019-02-03T20:31:13.349Z,101304.00
2019-02-03T20:33:45.317Z,101316.00
2019-02-03T20:36:22.277Z,101323.00
2019-02-03T20:38:54.307Z,101327.00
2019-02-03T20:41:32.302Z,101340.00
2019-02-03T20:44:19.283Z,101343.00
2019-02-03T20:46:51.326Z,101347.00
2019-02-03T20:49:23.319Z,101341.00
2019-02-03T20:51:55.266Z,101336.00
2019-02-03T20:57:08.597Z,101333.00
2019-02-03T20:59:40.408Z,101347.00
2019-02-03T21:02:12.460Z,101349.00
2019-02-03T21:04:44.346Z,101351.00
2019-02-03T21:07:17.260Z,101363.00
2019-02-03T21:09:51.957Z,101367.00
2019-02-03T21:12:23.491Z,101363.00
2019-02-03T21:14:55.424Z,101364.00
2019-02-03T21:17:27.324Z,101370.00
2019-02-03T21:19:59.164Z,101374.00
2019-02-03T21:22:31.063Z,101377.00
2019-02-03T21:25:03.053Z,101374.00
2019-02-03T21:27:35.191Z,101379.00
2019-02-03T21:30:11.087Z,101383.00
2019-02-03T21:32:42.668Z,101386.00
2019-02-03T21:35:14.492Z,101392.00
2019-02-03T21:37:46.000Z,101394.00
2019-02-03T21:40:21.621Z,101394.00
2019-02-03T21:42:53.603Z,101395.00
2019-02-03T21:45:43.919Z,101402.00
2019-02-03T21:48:11.005Z,101401.00
2019-02-03T21:50:47.647Z,101407.00
2019-02-03T21:53:19.280Z,101401.00
2019-02-03T21:55:51.228Z,101400.00
2019-02-03T21:58:22.808Z,101407.00
2019-02-03T22:00:54.423Z,101410.00
2019-02-03T22:03:26.128Z,101405.00
2019-02-03T22:05:57.887Z,101438.00
2019-02-03T22:08:29.718Z,101411.00
2019-02-03T22:11:01.838Z,101408.00
2019-02-03T22:13:33.975Z,101412.00
2019-02-03T22:16:06.759Z,101418.00
2019-02-03T22:18:40.705Z,101421.00
2019-02-03T22:21:12.893Z,101419.00
2019-02-03T22:23:44.963Z,101417.00
2019-02-03T22:26:16.561Z,101419.00
2019-02-03T22:28:48.144Z,101422.00
2019-02-03T22:31:20.106Z,101423.00
2019-02-03T22:33:51.601Z,101432.00
2019-02-03T22:36:23.179Z,101427.00
2019-02-03T22:38:54.822Z,101426.00
2019-02-03T22:41:47.138Z,101433.00
2019-02-03T22:44:21.592Z,101443.00
2019-02-03T22:46:53.176Z,101438.00
2019-02-03T22:49:24.857Z,101436.00
2019-02-03T22:51:56.689Z,101444.00
2019-02-03T22:54:28.194Z,101452.00
2019-02-03T22:56:59.805Z,101452.00
2019-02-03T22:59:31.319Z,101458.00
2019-02-03T23:02:03.997Z,101457.00
2019-02-03T23:04:38.676Z,101461.00
2019-02-03T23:07:10.280Z,101461.00
2019-02-03T23:09:41.948Z,101465.00
2019-02-03T23:12:13.441Z,101465.00
2019-02-03T23:14:52.226Z,101468.00
2019-02-03T23:17:23.880Z,101466.00
2019-02-03T23:19:55.533Z,101470.00
2019-02-03T23:22:34.634Z,101471.00
2019-02-03T23:25:07.847Z,101482.00
2019-02-03T23:27:39.535Z,101470.00
2019-02-03T23:30:14.639Z,101478.00
2019-02-03T23:32:46.214Z,101480.00
2019-02-03T23:35:18.120Z,101476.00
2019-02-03T23:37:49.647Z,101482.00
2019-02-03T23:40:21.271Z,101474.00
2019-02-03T23:42:52.799Z,101479.00
2019-02-03T23:45:24.347Z,101472.00
2019-02-03T23:47:57.119Z,101477.00
2019-02-03T23:50:28.696Z,101485.00
2019-02-03T23:53:00.247Z,101476.00
2019-02-03T23:55:31.724Z,101489.00
2019-02-03T23:58:03.339Z,101487.00
